METAR Data
IDs: Format: Raw Decoded Include TAF

Data at: 1337 UTC 10 Aug 2022

KPSP 101253Z 00000KT 10SM CLR 30/14 A2991 RMK AO2 SLP123 T03000144
KPSP 101153Z AUTO 17005KT 10SM CLR 31/14 A2989 RMK AO2 SLP116 T03060139 10356 20306 53003
KPSP 101053Z AUTO 00000KT 10SM CLR 32/13 A2988 RMK AO2 SLP113 T03170133
KPSP 100953Z AUTO 17003KT 10SM CLR 32/13 A2988 RMK AO2 SLP115 T03170133
KPSP 100853Z AUTO 32009KT 10SM CLR 34/13 A2988 RMK AO2 SLP112 T03390128 50003
KPSP 100753Z AUTO 30007KT 10SM CLR 34/12 A2988 RMK AO2 SLP113 T03390122 404170300
KPSP 100653Z 30008KT 10SM CLR 34/12 A2988 RMK AO2 SLP112 T03440117
KPSP 100553Z 32013KT 10SM CLR 36/12 A2987 RMK AO2 SLP110 T03560117 10417 20356 51022
KPSP 100453Z 32015G22KT 10SM CLR 36/12 A2986 RMK AO2 SLP107 T03610117
KPSP 100353Z 33015G19KT 10SM CLR 38/11 A2983 RMK AO2 SLP096 T03780111
KPSP 100253Z 31018KT 10SM CLR 39/12 A2980 RMK AO2 SLP087 T03890117 53007
KPSP 100153Z 10SM CLR 40/13 A2979 RMK AO2 SLP081 T04000133
KPSP 100053Z 10008KT 10SM CLR 41/16 A2978 RMK AO2 SLP078 T04110156
KPSP 092353Z COR 150/06 10SM CLR 41/16 A2978 RMK AO2 SLP080 T04110156 10417 20367 56024
KPSP 092253Z 13010KT 10SM CLR 41/17 A2979 RMK AO2 SLP082 T04110167
KPSP 092153Z 13010G15KT 10SM CLR 41/16 A2982 RMK AO2 SLP092 T04060161
KPSP 092053Z 13006KT 10SM CLR 40/16 A2985 RMK AO2 SLP103 T04000156 58022
KPSP 091953Z 14010KT 10SM CLR 39/16 A2989 RMK AO2 SLP114 T03890156
KPSP 091853Z VRB03KT 10SM CLR 38/14 A2991 RMK AO2 SLP122 T03780139
KPSP 091753Z VRB05KT 10SM CLR 37/14 A2992 RMK AO2 SLP127 T03670139 10367 20300 50000
KPSP 091653Z 26004KT 10SM CLR 34/12 A2993 RMK AO2 SLP130 T03440122
KPSP 091553Z 00000KT 10SM CLR 33/11 A2993 RMK AO2 SLP130 T03330111
KPSP 091453Z 00000KT 10SM CLR 32/10 A2992 RMK AO2 SLP126 T03220100 53018
KPSP 091353Z 00000KT 10SM CLR 31/13 A2990 RMK AO2 SLP120 T03060128
KPSP 091253Z AUTO 00000KT 10SM CLR 31/15 A2987 RMK AO2 SLP110 T03110150
KPSP 091153Z AUTO 18003KT 10SM CLR 31/14 A2986 RMK AO2 SLP108 T03060139 10350 20306 53003
KPSP 091053Z AUTO 00000KT 10SM CLR 31/12 A2986 RMK AO2 SLP105 T03110122
KPSP 090953Z AUTO 00000KT 10SM CLR 33/13 A2985 RMK AO2 SLP103 T03280128
KPSP 090853Z AUTO 33003KT 10SM CLR 33/11 A2986 RMK AO2 SLP104 T03330111 58007
KPSP 090753Z AUTO 33007KT 10SM CLR 34/09 A2987 RMK AO2 SLP108 T03440089 404110306
KPSP 090653Z AUTO 30004KT 10SM CLR 34/09 A2988 RMK AO2 SLP113 T03390094
KPSP 090553Z AUTO 00000KT 10SM CLR 34/18 A2988 RMK AO2 SLP112 T03390183 10350 20328 51007
KPSP 090453Z 19003KT 10SM CLR 34/18 A2987 RMK AO2 SLP111 T03390178
KPSP 090353Z 22004KT 10SM CLR 34/17 A2987 RMK AO2 SLP109 T03440167
KPSP 090253Z 00000KT 10SM CLR 35/16 A2985 RMK AO2 SLP104 T03500161 53006
KPSP 090153Z 00000KT 10SM CLR 35/16 A2985 RMK AO2 SLP103 T03500161